sensor_id;sensor_type;location;lat;lon;timestamp;P1;durP1;ratioP1;P2;durP2;ratioP2
82950;SDS011;72737;53.332;6.514;2024-01-25T00:00:16;11.57;;;3.15;;
82950;SDS011;72737;53.332;6.514;2024-01-25T00:02:42;12.45;;;3.45;;
82950;SDS011;72737;53.332;6.514;2024-01-25T00:05:07;11.90;;;2.92;;
82950;SDS011;72737;53.332;6.514;2024-01-25T00:07:33;11.82;;;2.72;;
82950;SDS011;72737;53.332;6.514;2024-01-25T00:09:59;10.27;;;2.83;;
82950;SDS011;72737;53.332;6.514;2024-01-25T00:12:24;11.35;;;2.83;;
82950;SDS011;72737;53.332;6.514;2024-01-25T00:14:49;12.90;;;3.30;;
82950;SDS011;72737;53.332;6.514;2024-01-25T00:17:16;10.95;;;2.95;;
82950;SDS011;72737;53.332;6.514;2024-01-25T00:46:01;11.75;;;2.90;;
82950;SDS011;72737;53.332;6.514;2024-01-25T00:48:27;12.27;;;2.70;;
82950;SDS011;72737;53.332;6.514;2024-01-25T00:50:53;10.02;;;2.75;;
82950;SDS011;72737;53.332;6.514;2024-01-25T00:53:18;12.63;;;3.00;;
82950;SDS011;72737;53.332;6.514;2024-01-25T00:55:44;11.10;;;2.88;;
82950;SDS011;72737;53.332;6.514;2024-01-25T00:58:10;13.02;;;3.10;;
82950;SDS011;72737;53.332;6.514;2024-01-25T01:00:35;13.50;;;3.20;;
82950;SDS011;72737;53.332;6.514;2024-01-25T01:03:01;12.45;;;3.40;;
82950;SDS011;72737;53.332;6.514;2024-01-25T01:05:29;16.30;;;3.15;;
82950;SDS011;72737;53.332;6.514;2024-01-25T01:07:55;13.68;;;3.42;;
82950;SDS011;72737;53.332;6.514;2024-01-25T01:10:21;12.52;;;3.03;;
82950;SDS011;72737;53.332;6.514;2024-01-25T01:12:46;10.88;;;3.15;;
82950;SDS011;72737;53.332;6.514;2024-01-25T01:15:12;12.98;;;3.30;;
82950;SDS011;72737;53.332;6.514;2024-01-25T01:17:37;13.20;;;3.47;;
82950;SDS011;72737;53.332;6.514;2024-01-25T01:20:03;12.93;;;3.17;;
82950;SDS011;72737;53.332;6.514;2024-01-25T01:22:28;11.52;;;3.22;;
82950;SDS011;72737;53.332;6.514;2024-01-25T01:24:54;16.10;;;3.70;;
82950;SDS011;72737;53.332;6.514;2024-01-25T01:27:19;15.45;;;3.80;;
82950;SDS011;72737;53.332;6.514;2024-01-25T01:29:46;14.30;;;3.53;;
82950;SDS011;72737;53.332;6.514;2024-01-25T01:32:11;13.80;;;3.55;;
82950;SDS011;72737;53.332;6.514;2024-01-25T01:34:37;12.52;;;3.17;;
82950;SDS011;72737;53.332;6.514;2024-01-25T01:37:02;12.65;;;3.17;;
82950;SDS011;72737;53.332;6.514;2024-01-25T01:39:28;11.93;;;3.40;;
82950;SDS011;72737;53.332;6.514;2024-01-25T01:41:53;12.80;;;3.13;;
82950;SDS011;72737;53.332;6.514;2024-01-25T01:44:19;10.85;;;2.97;;
82950;SDS011;72737;53.332;6.514;2024-01-25T01:46:45;12.82;;;2.83;;
82950;SDS011;72737;53.332;6.514;2024-01-25T01:49:14;15.38;;;3.40;;
82950;SDS011;72737;53.332;6.514;2024-01-25T01:51:40;14.13;;;3.40;;
82950;SDS011;72737;53.332;6.514;2024-01-25T01:54:07;12.20;;;3.00;;
82950;SDS011;72737;53.332;6.514;2024-01-25T01:56:32;14.15;;;3.38;;
82950;SDS011;72737;53.332;6.514;2024-01-25T01:59:02;12.05;;;2.95;;
82950;SDS011;72737;53.332;6.514;2024-01-25T02:01:29;13.73;;;3.50;;
82950;SDS011;72737;53.332;6.514;2024-01-25T02:03:55;13.35;;;3.20;;
82950;SDS011;72737;53.332;6.514;2024-01-25T02:06:24;13.32;;;3.30;;
82950;SDS011;72737;53.332;6.514;2024-01-25T02:08:49;13.65;;;3.28;;
82950;SDS011;72737;53.332;6.514;2024-01-25T02:11:18;11.55;;;3.17;;
82950;SDS011;72737;53.332;6.514;2024-01-25T02:13:44;11.57;;;2.67;;
82950;SDS011;72737;53.332;6.514;2024-01-25T02:16:10;15.80;;;3.25;;
82950;SDS011;72737;53.332;6.514;2024-01-25T02:18:35;12.52;;;3.33;;
82950;SDS011;72737;53.332;6.514;2024-01-25T02:21:01;10.80;;;2.88;;
82950;SDS011;72737;53.332;6.514;2024-01-25T02:23:27;13.93;;;3.10;;
82950;SDS011;72737;53.332;6.514;2024-01-25T02:25:52;10.85;;;2.85;;
82950;SDS011;72737;53.332;6.514;2024-01-25T02:28:18;10.80;;;2.88;;
82950;SDS011;72737;53.332;6.514;2024-01-25T02:30:43;14.57;;;3.45;;
82950;SDS011;72737;53.332;6.514;2024-01-25T02:33:09;14.93;;;3.10;;
82950;SDS011;72737;53.332;6.514;2024-01-25T02:35:34;12.20;;;3.10;;
82950;SDS011;72737;53.332;6.514;2024-01-25T02:38:03;12.60;;;3.05;;
82950;SDS011;72737;53.332;6.514;2024-01-25T02:40:29;12.65;;;2.70;;
82950;SDS011;72737;53.332;6.514;2024-01-25T02:42:54;12.48;;;2.90;;
82950;SDS011;72737;53.332;6.514;2024-01-25T02:45:21;12.45;;;3.17;;
82950;SDS011;72737;53.332;6.514;2024-01-25T02:47:47;12.90;;;3.08;;
82950;SDS011;72737;53.332;6.514;2024-01-25T02:50:12;12.65;;;3.20;;
82950;SDS011;72737;53.332;6.514;2024-01-25T02:52:37;13.10;;;3.28;;
82950;SDS011;72737;53.332;6.514;2024-01-25T02:55:03;12.73;;;3.65;;
82950;SDS011;72737;53.332;6.514;2024-01-25T02:57:28;12.85;;;3.13;;
82950;SDS011;72737;53.332;6.514;2024-01-25T02:59:56;12.15;;;3.13;;
82950;SDS011;72737;53.332;6.514;2024-01-25T03:02:22;11.00;;;2.85;;
82950;SDS011;72737;53.332;6.514;2024-01-25T03:04:47;11.20;;;3.00;;
82950;SDS011;72737;53.332;6.514;2024-01-25T03:07:13;12.35;;;2.83;;
82950;SDS011;72737;53.332;6.514;2024-01-25T03:09:38;13.10;;;3.35;;
82950;SDS011;72737;53.332;6.514;2024-01-25T03:12:04;11.13;;;2.88;;
82950;SDS011;72737;53.332;6.514;2024-01-25T03:14:30;10.70;;;3.10;;
82950;SDS011;72737;53.332;6.514;2024-01-25T03:16:55;11.57;;;2.70;;
82950;SDS011;72737;53.332;6.514;2024-01-25T03:19:23;13.77;;;3.67;;
82950;SDS011;72737;53.332;6.514;2024-01-25T03:21:49;11.50;;;2.60;;
82950;SDS011;72737;53.332;6.514;2024-01-25T03:24:15;13.40;;;2.88;;
82950;SDS011;72737;53.332;6.514;2024-01-25T03:26:40;11.77;;;3.22;;
82950;SDS011;72737;53.332;6.514;2024-01-25T03:29:05;12.48;;;2.72;;
82950;SDS011;72737;53.332;6.514;2024-01-25T03:31:31;10.27;;;2.70;;
82950;SDS011;72737;53.332;6.514;2024-01-25T03:33:56;11.07;;;2.72;;
82950;SDS011;72737;53.332;6.514;2024-01-25T03:36:21;11.38;;;2.75;;
82950;SDS011;72737;53.332;6.514;2024-01-25T03:38:47;13.63;;;3.20;;
82950;SDS011;72737;53.332;6.514;2024-01-25T03:41:13;10.88;;;2.80;;
82950;SDS011;72737;53.332;6.514;2024-01-25T03:43:38;11.32;;;3.10;;
82950;SDS011;72737;53.332;6.514;2024-01-25T03:46:03;12.13;;;3.30;;
82950;SDS011;72737;53.332;6.514;2024-01-25T03:48:30;12.50;;;2.50;;
82950;SDS011;72737;53.332;6.514;2024-01-25T03:50:55;11.20;;;2.63;;
82950;SDS011;72737;53.332;6.514;2024-01-25T03:53:24;10.27;;;2.60;;
82950;SDS011;72737;53.332;6.514;2024-01-25T03:55:49;12.23;;;2.90;;
82950;SDS011;72737;53.332;6.514;2024-01-25T03:58:16;11.75;;;2.75;;
82950;SDS011;72737;53.332;6.514;2024-01-25T04:00:43;14.35;;;3.30;;
82950;SDS011;72737;53.332;6.514;2024-01-25T04:03:08;11.38;;;2.70;;
82950;SDS011;72737;53.332;6.514;2024-01-25T04:05:35;12.23;;;2.80;;
82950;SDS011;72737;53.332;6.514;2024-01-25T04:08:00;9.80;;;2.38;;
82950;SDS011;72737;53.332;6.514;2024-01-25T04:10:25;9.82;;;2.40;;
82950;SDS011;72737;53.332;6.514;2024-01-25T04:12:51;12.18;;;3.08;;
82950;SDS011;72737;53.332;6.514;2024-01-25T04:15:16;10.52;;;2.67;;
82950;SDS011;72737;53.332;6.514;2024-01-25T04:17:42;12.48;;;3.00;;
82950;SDS011;72737;53.332;6.514;2024-01-25T04:20:07;11.05;;;3.00;;
82950;SDS011;72737;53.332;6.514;2024-01-25T04:22:33;12.13;;;2.72;;
82950;SDS011;72737;53.332;6.514;2024-01-25T04:24:59;12.77;;;2.90;;
82950;SDS011;72737;53.332;6.514;2024-01-25T04:27:24;11.00;;;2.72;;
82950;SDS011;72737;53.332;6.514;2024-01-25T04:29:50;9.35;;;2.42;;
82950;SDS011;72737;53.332;6.514;2024-01-25T04:32:15;11.40;;;2.85;;
82950;SDS011;72737;53.332;6.514;2024-01-25T04:34:40;9.77;;;2.47;;
82950;SDS011;72737;53.332;6.514;2024-01-25T04:37:06;13.32;;;2.50;;
82950;SDS011;72737;53.332;6.514;2024-01-25T04:39:31;11.07;;;2.95;;
82950;SDS011;72737;53.332;6.514;2024-01-25T04:41:56;11.45;;;2.35;;
82950;SDS011;72737;53.332;6.514;2024-01-25T04:44:22;16.17;;;2.90;;
82950;SDS011;72737;53.332;6.514;2024-01-25T04:46:47;12.68;;;2.60;;
82950;SDS011;72737;53.332;6.514;2024-01-25T04:49:12;13.88;;;3.10;;
82950;SDS011;72737;53.332;6.514;2024-01-25T04:51:38;11.05;;;2.90;;
82950;SDS011;72737;53.332;6.514;2024-01-25T04:54:03;10.02;;;2.53;;
82950;SDS011;72737;53.332;6.514;2024-01-25T04:56:29;10.23;;;2.53;;
82950;SDS011;72737;53.332;6.514;2024-01-25T04:58:54;13.90;;;3.05;;
82950;SDS011;72737;53.332;6.514;2024-01-25T05:01:20;11.90;;;2.83;;
82950;SDS011;72737;53.332;6.514;2024-01-25T05:03:45;9.95;;;2.40;;
82950;SDS011;72737;53.332;6.514;2024-01-25T05:06:11;10.75;;;2.30;;
82950;SDS011;72737;53.332;6.514;2024-01-25T05:08:36;10.40;;;2.55;;
82950;SDS011;72737;53.332;6.514;2024-01-25T05:11:01;11.65;;;2.85;;
82950;SDS011;72737;53.332;6.514;2024-01-25T05:13:28;12.73;;;2.45;;
82950;SDS011;72737;53.332;6.514;2024-01-25T05:15:53;14.60;;;2.83;;
82950;SDS011;72737;53.332;6.514;2024-01-25T05:18:18;13.07;;;2.72;;
82950;SDS011;72737;53.332;6.514;2024-01-25T05:20:44;12.45;;;2.55;;
82950;SDS011;72737;53.332;6.514;2024-01-25T05:23:09;12.70;;;2.88;;
82950;SDS011;72737;53.332;6.514;2024-01-25T05:25:34;13.10;;;2.75;;
82950;SDS011;72737;53.332;6.514;2024-01-25T05:28:00;10.80;;;2.60;;
82950;SDS011;72737;53.332;6.514;2024-01-25T05:30:25;13.10;;;2.72;;
82950;SDS011;72737;53.332;6.514;2024-01-25T05:32:51;12.13;;;2.75;;
82950;SDS011;72737;53.332;6.514;2024-01-25T05:35:18;10.85;;;2.65;;
82950;SDS011;72737;53.332;6.514;2024-01-25T05:37:44;10.10;;;2.55;;
82950;SDS011;72737;53.332;6.514;2024-01-25T05:40:09;16.67;;;3.17;;
82950;SDS011;72737;53.332;6.514;2024-01-25T05:42:35;11.98;;;2.50;;
82950;SDS011;72737;53.332;6.514;2024-01-25T05:45:04;10.45;;;2.67;;
82950;SDS011;72737;53.332;6.514;2024-01-25T05:47:30;11.40;;;2.67;;
82950;SDS011;72737;53.332;6.514;2024-01-25T05:49:56;11.98;;;2.63;;
82950;SDS011;72737;53.332;6.514;2024-01-25T05:52:22;14.10;;;3.28;;
82950;SDS011;72737;53.332;6.514;2024-01-25T05:57:14;12.40;;;2.90;;
82950;SDS011;72737;53.332;6.514;2024-01-25T05:59:39;13.07;;;2.90;;
82950;SDS011;72737;53.332;6.514;2024-01-25T06:02:05;11.80;;;3.00;;
82950;SDS011;72737;53.332;6.514;2024-01-25T06:04:30;11.38;;;2.60;;
82950;SDS011;72737;53.332;6.514;2024-01-25T06:06:56;13.05;;;3.10;;
82950;SDS011;72737;53.332;6.514;2024-01-25T06:09:21;12.13;;;2.85;;
82950;SDS011;72737;53.332;6.514;2024-01-25T06:11:48;14.65;;;3.45;;
82950;SDS011;72737;53.332;6.514;2024-01-25T06:14:13;15.90;;;3.53;;
82950;SDS011;72737;53.332;6.514;2024-01-25T06:16:38;10.25;;;2.83;;
82950;SDS011;72737;53.332;6.514;2024-01-25T06:19:04;13.48;;;3.45;;
82950;SDS011;72737;53.332;6.514;2024-01-25T06:21:29;15.65;;;3.22;;
82950;SDS011;72737;53.332;6.514;2024-01-25T06:23:54;15.95;;;3.50;;
82950;SDS011;72737;53.332;6.514;2024-01-25T06:26:20;14.02;;;3.30;;
82950;SDS011;72737;53.332;6.514;2024-01-25T06:28:45;13.93;;;3.55;;
82950;SDS011;72737;53.332;6.514;2024-01-25T06:31:10;14.80;;;3.53;;
82950;SDS011;72737;53.332;6.514;2024-01-25T06:33:36;19.50;;;3.78;;
82950;SDS011;72737;53.332;6.514;2024-01-25T06:36:01;14.30;;;3.38;;
82950;SDS011;72737;53.332;6.514;2024-01-25T06:38:27;17.30;;;3.70;;
82950;SDS011;72737;53.332;6.514;2024-01-25T06:40:52;16.95;;;3.88;;
82950;SDS011;72737;53.332;6.514;2024-01-25T06:43:18;18.08;;;4.65;;
82950;SDS011;72737;53.332;6.514;2024-01-25T06:45:43;17.80;;;3.60;;
82950;SDS011;72737;53.332;6.514;2024-01-25T06:48:08;15.23;;;3.90;;
82950;SDS011;72737;53.332;6.514;2024-01-25T06:50:34;14.88;;;3.63;;
82950;SDS011;72737;53.332;6.514;2024-01-25T06:53:00;14.95;;;3.78;;
82950;SDS011;72737;53.332;6.514;2024-01-25T06:55:26;18.35;;;3.78;;
82950;SDS011;72737;53.332;6.514;2024-01-25T06:57:51;18.20;;;4.43;;
82950;SDS011;72737;53.332;6.514;2024-01-25T07:00:17;18.88;;;3.63;;
82950;SDS011;72737;53.332;6.514;2024-01-25T07:02:43;15.65;;;3.80;;
82950;SDS011;72737;53.332;6.514;2024-01-25T07:05:09;17.88;;;3.70;;
82950;SDS011;72737;53.332;6.514;2024-01-25T07:07:35;14.68;;;3.97;;
82950;SDS011;72737;53.332;6.514;2024-01-25T07:10:00;18.38;;;4.28;;
82950;SDS011;72737;53.332;6.514;2024-01-25T07:12:26;16.67;;;4.22;;
82950;SDS011;72737;53.332;6.514;2024-01-25T07:14:52;16.90;;;4.07;;
82950;SDS011;72737;53.332;6.514;2024-01-25T07:17:17;17.35;;;4.50;;
82950;SDS011;72737;53.332;6.514;2024-01-25T07:19:42;21.02;;;4.03;;
82950;SDS011;72737;53.332;6.514;2024-01-25T07:22:08;17.15;;;3.90;;
82950;SDS011;72737;53.332;6.514;2024-01-25T07:24:33;17.35;;;3.90;;
82950;SDS011;72737;53.332;6.514;2024-01-25T07:26:59;14.23;;;3.90;;
82950;SDS011;72737;53.332;6.514;2024-01-25T07:29:24;12.80;;;3.38;;
82950;SDS011;72737;53.332;6.514;2024-01-25T07:31:50;15.32;;;3.90;;
82950;SDS011;72737;53.332;6.514;2024-01-25T07:34:15;16.85;;;3.72;;
82950;SDS011;72737;53.332;6.514;2024-01-25T07:36:41;12.23;;;3.20;;
82950;SDS011;72737;53.332;6.514;2024-01-25T07:39:06;14.13;;;3.88;;
82950;SDS011;72737;53.332;6.514;2024-01-25T07:41:31;13.02;;;3.47;;
82950;SDS011;72737;53.332;6.514;2024-01-25T07:43:56;15.35;;;3.45;;
82950;SDS011;72737;53.332;6.514;2024-01-25T07:46:22;15.55;;;3.55;;
82950;SDS011;72737;53.332;6.514;2024-01-25T07:48:49;13.43;;;3.67;;
82950;SDS011;72737;53.332;6.514;2024-01-25T07:51:15;15.40;;;3.90;;
82950;SDS011;72737;53.332;6.514;2024-01-25T07:53:40;16.70;;;3.80;;
82950;SDS011;72737;53.332;6.514;2024-01-25T07:56:09;16.27;;;3.78;;
82950;SDS011;72737;53.332;6.514;2024-01-25T07:58:35;16.52;;;3.75;;
82950;SDS011;72737;53.332;6.514;2024-01-25T08:01:04;12.98;;;3.33;;
82950;SDS011;72737;53.332;6.514;2024-01-25T08:03:34;14.27;;;3.42;;
82950;SDS011;72737;53.332;6.514;2024-01-25T08:05:59;13.70;;;3.78;;
82950;SDS011;72737;53.332;6.514;2024-01-25T08:08:27;15.65;;;3.90;;
82950;SDS011;72737;53.332;6.514;2024-01-25T08:10:53;15.50;;;3.75;;
82950;SDS011;72737;53.332;6.514;2024-01-25T08:13:18;13.57;;;3.80;;
82950;SDS011;72737;53.332;6.514;2024-01-25T08:15:44;14.35;;;3.90;;
82950;SDS011;72737;53.332;6.514;2024-01-25T08:18:10;13.73;;;3.50;;
82950;SDS011;72737;53.332;6.514;2024-01-25T08:20:36;15.70;;;3.88;;
82950;SDS011;72737;53.332;6.514;2024-01-25T08:23:02;12.27;;;3.95;;
82950;SDS011;72737;53.332;6.514;2024-01-25T08:25:28;14.90;;;3.58;;
82950;SDS011;72737;53.332;6.514;2024-01-25T08:27:53;12.85;;;3.30;;
82950;SDS011;72737;53.332;6.514;2024-01-25T08:30:18;14.35;;;3.17;;
82950;SDS011;72737;53.332;6.514;2024-01-25T08:32:44;15.23;;;3.53;;
82950;SDS011;72737;53.332;6.514;2024-01-25T08:35:09;18.48;;;4.05;;
82950;SDS011;72737;53.332;6.514;2024-01-25T08:37:35;18.38;;;3.15;;
82950;SDS011;72737;53.332;6.514;2024-01-25T08:40:03;14.30;;;3.03;;
82950;SDS011;72737;53.332;6.514;2024-01-25T08:42:31;18.55;;;3.33;;
82950;SDS011;72737;53.332;6.514;2024-01-25T08:44:56;11.52;;;3.00;;
82950;SDS011;72737;53.332;6.514;2024-01-25T08:47:22;15.93;;;3.47;;
82950;SDS011;72737;53.332;6.514;2024-01-25T08:49:47;14.55;;;3.20;;
82950;SDS011;72737;53.332;6.514;2024-01-25T08:52:12;14.25;;;3.53;;
82950;SDS011;72737;53.332;6.514;2024-01-25T08:54:38;12.60;;;2.78;;
82950;SDS011;72737;53.332;6.514;2024-01-25T08:57:04;13.95;;;3.67;;
82950;SDS011;72737;53.332;6.514;2024-01-25T08:59:30;16.95;;;3.25;;
82950;SDS011;72737;53.332;6.514;2024-01-25T09:01:57;13.82;;;2.90;;
82950;SDS011;72737;53.332;6.514;2024-01-25T09:04:23;11.55;;;3.00;;
82950;SDS011;72737;53.332;6.514;2024-01-25T09:06:48;14.23;;;3.20;;
82950;SDS011;72737;53.332;6.514;2024-01-25T09:09:14;14.10;;;3.92;;
82950;SDS011;72737;53.332;6.514;2024-01-25T09:11:39;15.90;;;3.72;;
82950;SDS011;72737;53.332;6.514;2024-01-25T09:14:04;17.67;;;3.97;;
82950;SDS011;72737;53.332;6.514;2024-01-25T09:16:30;16.25;;;3.50;;
82950;SDS011;72737;53.332;6.514;2024-01-25T09:18:55;15.88;;;3.33;;
82950;SDS011;72737;53.332;6.514;2024-01-25T09:21:21;12.52;;;3.40;;
82950;SDS011;72737;53.332;6.514;2024-01-25T09:23:46;17.73;;;3.45;;
82950;SDS011;72737;53.332;6.514;2024-01-25T09:26:12;14.65;;;3.13;;
82950;SDS011;72737;53.332;6.514;2024-01-25T09:28:37;13.32;;;3.25;;
82950;SDS011;72737;53.332;6.514;2024-01-25T09:31:03;12.82;;;3.17;;
82950;SDS011;72737;53.332;6.514;2024-01-25T09:33:29;13.70;;;3.30;;
82950;SDS011;72737;53.332;6.514;2024-01-25T09:35:55;13.05;;;3.40;;
82950;SDS011;72737;53.332;6.514;2024-01-25T09:38:21;16.63;;;3.20;;
82950;SDS011;72737;53.332;6.514;2024-01-25T09:40:47;15.68;;;3.88;;
82950;SDS011;72737;53.332;6.514;2024-01-25T09:45:39;12.10;;;2.97;;
82950;SDS011;72737;53.332;6.514;2024-01-25T09:48:06;15.93;;;3.88;;
82950;SDS011;72737;53.332;6.514;2024-01-25T09:50:32;14.27;;;3.30;;
82950;SDS011;72737;53.332;6.514;2024-01-25T09:52:59;15.63;;;3.80;;
82950;SDS011;72737;53.332;6.514;2024-01-25T09:55:25;13.15;;;3.50;;
82950;SDS011;72737;53.332;6.514;2024-01-25T09:57:54;16.58;;;3.88;;
82950;SDS011;72737;53.332;6.514;2024-01-25T10:00:23;13.88;;;3.60;;
82950;SDS011;72737;53.332;6.514;2024-01-25T10:02:49;14.82;;;3.60;;
82950;SDS011;72737;53.332;6.514;2024-01-25T10:05:15;14.95;;;3.70;;
82950;SDS011;72737;53.332;6.514;2024-01-25T10:07:45;13.40;;;3.47;;
82950;SDS011;72737;53.332;6.514;2024-01-25T10:10:11;12.60;;;3.67;;
82950;SDS011;72737;53.332;6.514;2024-01-25T10:12:38;19.88;;;4.07;;
82950;SDS011;72737;53.332;6.514;2024-01-25T10:15:05;18.30;;;3.80;;
82950;SDS011;72737;53.332;6.514;2024-01-25T10:17:31;14.57;;;3.17;;
82950;SDS011;72737;53.332;6.514;2024-01-25T10:19:56;17.08;;;3.83;;
82950;SDS011;72737;53.332;6.514;2024-01-25T10:22:22;14.45;;;3.38;;
82950;SDS011;72737;53.332;6.514;2024-01-25T10:24:48;13.57;;;3.72;;
82950;SDS011;72737;53.332;6.514;2024-01-25T10:27:15;15.48;;;3.80;;
82950;SDS011;72737;53.332;6.514;2024-01-25T10:29:41;17.58;;;3.67;;
82950;SDS011;72737;53.332;6.514;2024-01-25T10:32:08;16.27;;;4.15;;
82950;SDS011;72737;53.332;6.514;2024-01-25T10:34:35;15.82;;;3.83;;
82950;SDS011;72737;53.332;6.514;2024-01-25T10:37:04;14.93;;;3.25;;
82950;SDS011;72737;53.332;6.514;2024-01-25T10:39:31;15.82;;;3.75;;
82950;SDS011;72737;53.332;6.514;2024-01-25T10:41:57;16.42;;;4.47;;
82950;SDS011;72737;53.332;6.514;2024-01-25T10:44:24;15.27;;;3.67;;
82950;SDS011;72737;53.332;6.514;2024-01-25T10:46:49;15.32;;;3.55;;
82950;SDS011;72737;53.332;6.514;2024-01-25T10:49:15;16.52;;;3.88;;
82950;SDS011;72737;53.332;6.514;2024-01-25T10:51:42;15.38;;;3.83;;
82950;SDS011;72737;53.332;6.514;2024-01-25T10:54:09;17.33;;;3.92;;
82950;SDS011;72737;53.332;6.514;2024-01-25T10:56:38;16.25;;;4.15;;
82950;SDS011;72737;53.332;6.514;2024-01-25T10:59:06;18.38;;;4.03;;
82950;SDS011;72737;53.332;6.514;2024-01-25T11:01:33;18.02;;;4.05;;
82950;SDS011;72737;53.332;6.514;2024-01-25T11:03:59;15.88;;;3.85;;
82950;SDS011;72737;53.332;6.514;2024-01-25T11:06:26;16.38;;;3.88;;
82950;SDS011;72737;53.332;6.514;2024-01-25T11:08:52;14.88;;;3.55;;
82950;SDS011;72737;53.332;6.514;2024-01-25T11:11:29;16.20;;;3.58;;
82950;SDS011;72737;53.332;6.514;2024-01-25T11:13:56;16.48;;;4.22;;
82950;SDS011;72737;53.332;6.514;2024-01-25T11:16:29;16.25;;;4.00;;
82950;SDS011;72737;53.332;6.514;2024-01-25T11:18:57;18.67;;;4.38;;
82950;SDS011;72737;53.332;6.514;2024-01-25T11:21:39;18.55;;;4.50;;
82950;SDS011;72737;53.332;6.514;2024-01-25T11:26:38;15.15;;;3.80;;
82950;SDS011;72737;53.332;6.514;2024-01-25T11:29:04;19.85;;;3.83;;
82950;SDS011;72737;53.332;6.514;2024-01-25T11:31:29;17.55;;;4.28;;
82950;SDS011;72737;53.332;6.514;2024-01-25T11:33:58;16.50;;;3.95;;
82950;SDS011;72737;53.332;6.514;2024-01-25T11:36:25;16.48;;;4.10;;
82950;SDS011;72737;53.332;6.514;2024-01-25T11:38:50;19.30;;;4.13;;
82950;SDS011;72737;53.332;6.514;2024-01-25T11:41:16;18.45;;;4.10;;
82950;SDS011;72737;53.332;6.514;2024-01-25T11:43:41;17.75;;;4.30;;
82950;SDS011;72737;53.332;6.514;2024-01-25T11:46:07;17.95;;;4.07;;
82950;SDS011;72737;53.332;6.514;2024-01-25T11:48:33;15.15;;;3.88;;
82950;SDS011;72737;53.332;6.514;2024-01-25T11:50:59;17.60;;;3.58;;
82950;SDS011;72737;53.332;6.514;2024-01-25T11:53:25;16.40;;;3.85;;
82950;SDS011;72737;53.332;6.514;2024-01-25T11:55:50;19.10;;;3.85;;
82950;SDS011;72737;53.332;6.514;2024-01-25T11:58:17;17.58;;;4.05;;
82950;SDS011;72737;53.332;6.514;2024-01-25T12:00:42;15.25;;;3.60;;
82950;SDS011;72737;53.332;6.514;2024-01-25T12:03:08;16.92;;;4.22;;
82950;SDS011;72737;53.332;6.514;2024-01-25T12:05:34;17.25;;;4.00;;
82950;SDS011;72737;53.332;6.514;2024-01-25T12:08:00;19.45;;;4.00;;
82950;SDS011;72737;53.332;6.514;2024-01-25T12:10:25;19.92;;;4.63;;
82950;SDS011;72737;53.332;6.514;2024-01-25T12:12:51;18.48;;;4.00;;
82950;SDS011;72737;53.332;6.514;2024-01-25T12:15:16;16.33;;;3.83;;
82950;SDS011;72737;53.332;6.514;2024-01-25T12:17:42;14.35;;;3.78;;
82950;SDS011;72737;53.332;6.514;2024-01-25T12:20:08;16.58;;;4.03;;
82950;SDS011;72737;53.332;6.514;2024-01-25T12:22:36;16.70;;;3.72;;
82950;SDS011;72737;53.332;6.514;2024-01-25T12:25:03;19.50;;;4.00;;
82950;SDS011;72737;53.332;6.514;2024-01-25T12:27:32;17.38;;;3.90;;
82950;SDS011;72737;53.332;6.514;2024-01-25T12:29:58;14.13;;;3.72;;
82950;SDS011;72737;53.332;6.514;2024-01-25T12:32:23;16.38;;;3.80;;
82950;SDS011;72737;53.332;6.514;2024-01-25T12:34:55;17.92;;;4.30;;
82950;SDS011;72737;53.332;6.514;2024-01-25T12:37:21;20.45;;;3.90;;
82950;SDS011;72737;53.332;6.514;2024-01-25T12:39:47;16.83;;;4.07;;
82950;SDS011;72737;53.332;6.514;2024-01-25T12:42:13;17.05;;;3.92;;
82950;SDS011;72737;53.332;6.514;2024-01-25T12:44:39;17.08;;;3.47;;
82950;SDS011;72737;53.332;6.514;2024-01-25T12:47:04;18.33;;;4.00;;
82950;SDS011;72737;53.332;6.514;2024-01-25T12:49:31;16.33;;;3.88;;
82950;SDS011;72737;53.332;6.514;2024-01-25T12:51:57;17.70;;;4.03;;
82950;SDS011;72737;53.332;6.514;2024-01-25T12:54:22;19.55;;;4.82;;
82950;SDS011;72737;53.332;6.514;2024-01-25T12:56:48;18.58;;;3.90;;
82950;SDS011;72737;53.332;6.514;2024-01-25T12:59:14;16.60;;;3.63;;
82950;SDS011;72737;53.332;6.514;2024-01-25T13:01:39;15.75;;;3.72;;
82950;SDS011;72737;53.332;6.514;2024-01-25T13:04:04;15.80;;;3.80;;
82950;SDS011;72737;53.332;6.514;2024-01-25T13:06:30;16.20;;;3.50;;
82950;SDS011;72737;53.332;6.514;2024-01-25T13:08:56;17.42;;;3.75;;
82950;SDS011;72737;53.332;6.514;2024-01-25T13:11:21;15.73;;;3.95;;
82950;SDS011;72737;53.332;6.514;2024-01-25T13:13:47;18.52;;;3.85;;
82950;SDS011;72737;53.332;6.514;2024-01-25T13:16:12;16.17;;;3.33;;
82950;SDS011;72737;53.332;6.514;2024-01-25T13:18:38;14.55;;;3.35;;
82950;SDS011;72737;53.332;6.514;2024-01-25T13:21:03;17.75;;;3.65;;
82950;SDS011;72737;53.332;6.514;2024-01-25T13:23:29;14.95;;;3.80;;
82950;SDS011;72737;53.332;6.514;2024-01-25T13:25:54;16.70;;;3.55;;
82950;SDS011;72737;53.332;6.514;2024-01-25T13:28:19;14.45;;;3.30;;
82950;SDS011;72737;53.332;6.514;2024-01-25T13:30:45;13.68;;;3.63;;
82950;SDS011;72737;53.332;6.514;2024-01-25T13:33:10;14.00;;;3.40;;
82950;SDS011;72737;53.332;6.514;2024-01-25T13:35:35;14.43;;;3.53;;
82950;SDS011;72737;53.332;6.514;2024-01-25T13:38:01;15.93;;;3.42;;
82950;SDS011;72737;53.332;6.514;2024-01-25T13:40:27;12.82;;;3.53;;
82950;SDS011;72737;53.332;6.514;2024-01-25T13:42:52;14.88;;;3.60;;
82950;SDS011;72737;53.332;6.514;2024-01-25T13:45:19;12.73;;;3.33;;
82950;SDS011;72737;53.332;6.514;2024-01-25T13:47:45;15.65;;;4.03;;
82950;SDS011;72737;53.332;6.514;2024-01-25T13:50:10;16.20;;;3.72;;
82950;SDS011;72737;53.332;6.514;2024-01-25T13:52:36;13.80;;;3.45;;
82950;SDS011;72737;53.332;6.514;2024-01-25T13:55:01;13.63;;;3.22;;
82950;SDS011;72737;53.332;6.514;2024-01-25T13:57:26;15.43;;;3.00;;
82950;SDS011;72737;53.332;6.514;2024-01-25T13:59:52;12.95;;;3.17;;
82950;SDS011;72737;53.332;6.514;2024-01-25T14:02:17;15.18;;;3.92;;
82950;SDS011;72737;53.332;6.514;2024-01-25T14:04:42;13.02;;;3.35;;
82950;SDS011;72737;53.332;6.514;2024-01-25T14:07:08;11.88;;;2.90;;
82950;SDS011;72737;53.332;6.514;2024-01-25T14:09:33;16.25;;;3.22;;
82950;SDS011;72737;53.332;6.514;2024-01-25T14:12:07;17.37;;;3.63;;
82950;SDS011;72737;53.332;6.514;2024-01-25T14:14:33;13.55;;;3.33;;
82950;SDS011;72737;53.332;6.514;2024-01-25T14:16:58;15.43;;;3.72;;
82950;SDS011;72737;53.332;6.514;2024-01-25T14:19:23;14.70;;;3.33;;
82950;SDS011;72737;53.332;6.514;2024-01-25T14:21:49;17.98;;;3.45;;
82950;SDS011;72737;53.332;6.514;2024-01-25T14:24:15;15.85;;;3.55;;
82950;SDS011;72737;53.332;6.514;2024-01-25T14:26:41;15.45;;;3.50;;
82950;SDS011;72737;53.332;6.514;2024-01-25T14:29:06;14.10;;;3.67;;
82950;SDS011;72737;53.332;6.514;2024-01-25T14:31:32;15.93;;;3.00;;
82950;SDS011;72737;53.332;6.514;2024-01-25T14:33:57;15.05;;;3.25;;
82950;SDS011;72737;53.332;6.514;2024-01-25T14:36:23;12.80;;;2.90;;
82950;SDS011;72737;53.332;6.514;2024-01-25T14:38:48;16.33;;;3.72;;
82950;SDS011;72737;53.332;6.514;2024-01-25T14:41:13;13.70;;;3.10;;
82950;SDS011;72737;53.332;6.514;2024-01-25T14:43:39;15.38;;;3.35;;
82950;SDS011;72737;53.332;6.514;2024-01-25T14:46:05;13.48;;;3.20;;
82950;SDS011;72737;53.332;6.514;2024-01-25T14:48:31;13.63;;;3.38;;
82950;SDS011;72737;53.332;6.514;2024-01-25T14:50:56;13.48;;;3.38;;
82950;SDS011;72737;53.332;6.514;2024-01-25T14:53:22;14.05;;;3.70;;
82950;SDS011;72737;53.332;6.514;2024-01-25T14:55:47;16.27;;;3.30;;
82950;SDS011;72737;53.332;6.514;2024-01-25T14:58:12;13.45;;;3.25;;
82950;SDS011;72737;53.332;6.514;2024-01-25T15:03:05;12.77;;;3.40;;